createdAt,value
2017-02-02T00:00:08.380Z,26.7
2017-02-02T00:01:09.427Z,26.7
2017-02-02T00:02:08.503Z,26.8
2017-02-02T00:03:08.478Z,26.7
2017-02-02T00:04:08.493Z,26.7
2017-02-02T00:05:08.656Z,26.7
2017-02-02T00:06:09.764Z,26.8
2017-02-02T00:07:08.755Z,26.8
2017-02-02T00:08:09.767Z,26.7
2017-02-02T00:09:08.839Z,26.8
2017-02-02T00:10:08.772Z,26.8
2017-02-02T00:11:09.934Z,26.8
2017-02-02T00:12:09.881Z,26.8
2017-02-02T00:13:10.044Z,26.8
2017-02-02T00:14:09.033Z,26.8
2017-02-02T00:15:10.083Z,26.8
2017-02-02T00:16:09.178Z,26.8
2017-02-02T00:17:10.254Z,26.8
2017-02-02T00:18:10.286Z,26.8
2017-02-02T00:19:09.218Z,26.8
2017-02-02T00:20:10.341Z,26.8
2017-02-02T00:21:10.313Z,26.8
2017-02-02T00:22:10.447Z,26.8
2017-02-02T00:23:09.348Z,26.8
2017-02-02T00:24:09.491Z,26.8
2017-02-02T00:25:09.525Z,26.8
2017-02-02T00:26:10.568Z,26.8
2017-02-02T00:27:10.713Z,26.8
2017-02-02T00:28:10.743Z,26.8
2017-02-02T00:29:10.764Z,26.8
2017-02-02T00:30:10.756Z,26.8
2017-02-02T00:31:09.709Z,26.8
2017-02-02T00:32:09.742Z,26.8
2017-02-02T00:33:10.901Z,26.8
2017-02-02T00:34:10.921Z,26.8
2017-02-02T00:35:11.007Z,26.8
2017-02-02T00:36:10.006Z,26.8
2017-02-02T00:37:11.065Z,26.8
2017-02-02T00:38:11.030Z,26.8
2017-02-02T00:39:11.033Z,26.8
2017-02-02T00:40:11.159Z,26.8
2017-02-02T00:41:10.063Z,26.8
2017-02-02T00:42:11.203Z,26.8
2017-02-02T00:43:10.119Z,26.8
2017-02-02T00:44:10.207Z,26.8
2017-02-02T00:45:11.324Z,26.8
2017-02-02T00:46:11.325Z,26.8
2017-02-02T00:47:10.408Z,26.8
2017-02-02T00:48:11.530Z,26.8
2017-02-02T00:49:11.501Z,26.8
2017-02-02T00:50:11.077Z,26.8
2017-02-02T00:51:11.561Z,26.8
2017-02-02T00:52:11.666Z,26.8
2017-02-02T00:53:11.749Z,26.8
2017-02-02T00:54:12.020Z,26.8
2017-02-02T00:55:10.732Z,26.8
2017-02-02T00:56:11.925Z,26.8
2017-02-02T00:57:11.971Z,26.8
2017-02-02T00:58:10.925Z,26.8
2017-02-02T00:59:11.001Z,26.8
2017-02-02T01:00:11.169Z,26.8
2017-02-02T01:01:12.222Z,26.8
2017-02-02T01:02:12.356Z,26.8
2017-02-02T01:03:11.347Z,26.8
2017-02-02T01:04:11.309Z,26.8
2017-02-02T01:05:11.401Z,26.8
2017-02-02T01:06:12.567Z,26.8
2017-02-02T01:07:11.439Z,26.8
2017-02-02T01:08:12.691Z,26.8
2017-02-02T01:09:12.781Z,26.8
2017-02-02T01:10:11.767Z,26.8
2017-02-02T01:11:11.731Z,26.8
2017-02-02T01:12:11.742Z,26.8
2017-02-02T01:13:11.862Z,26.8
2017-02-02T01:14:12.994Z,26.8
2017-02-02T01:15:11.886Z,26.8
2017-02-02T01:16:13.121Z,26.8
2017-02-02T01:17:13.172Z,26.8
2017-02-02T01:18:13.251Z,26.8
2017-02-02T01:19:12.231Z,26.8
2017-02-02T01:20:13.375Z,26.8
2017-02-02T01:21:13.329Z,26.8
2017-02-02T01:22:12.435Z,26.8
2017-02-02T01:23:13.550Z,26.8
2017-02-02T01:24:12.542Z,26.8
2017-02-02T01:25:12.532Z,26.8
2017-02-02T01:26:12.664Z,26.8
2017-02-02T01:27:13.798Z,26.8
2017-02-02T01:28:13.916Z,26.8
2017-02-02T01:29:12.907Z,26.8
2017-02-02T01:30:12.953Z,26.8
2017-02-02T01:31:12.900Z,26.8
2017-02-02T01:32:14.018Z,26.8
2017-02-02T01:33:14.114Z,26.8
2017-02-02T01:34:14.853Z,26.8
2017-02-02T01:35:13.218Z,26.8
2017-02-02T01:36:14.255Z,26.8
2017-02-02T01:37:13.263Z,26.8
2017-02-02T01:38:13.308Z,26.8
2017-02-02T01:39:13.304Z,26.8
2017-02-02T01:40:13.358Z,26.8
2017-02-02T01:41:13.491Z,26.8
2017-02-02T01:42:13.436Z,26.8
2017-02-02T01:43:14.599Z,26.8
2017-02-02T01:44:14.694Z,26.8
2017-02-02T01:45:14.753Z,26.8
2017-02-02T01:46:15.370Z,26.8
2017-02-02T01:47:13.850Z,26.8
2017-02-02T01:48:13.807Z,26.8
2017-02-02T01:49:15.014Z,26.8
2017-02-02T01:50:14.942Z,26.8
2017-02-02T01:51:14.972Z,26.8
2017-02-02T01:52:13.980Z,26.8
2017-02-02T01:53:14.014Z,26.8
2017-02-02T01:54:15.008Z,26.8
2017-02-02T01:55:14.103Z,26.8
2017-02-02T01:56:14.055Z,26.8
2017-02-02T01:57:14.132Z,26.8
2017-02-02T01:58:14.228Z,26.8
2017-02-02T01:59:14.317Z,26.8
2017-02-02T02:00:14.368Z,26.8
2017-02-02T02:01:14.361Z,26.8
2017-02-02T02:02:15.554Z,26.8
2017-02-02T02:03:14.455Z,26.8
2017-02-02T02:04:15.661Z,26.8
2017-02-02T02:05:14.835Z,26.8
2017-02-02T02:06:15.739Z,26.8
2017-02-02T02:07:14.724Z,26.9
2017-02-02T02:08:15.737Z,26.8
2017-02-02T02:09:15.800Z,26.8
2017-02-02T02:10:14.800Z,26.8
2017-02-02T02:11:15.192Z,26.8
2017-02-02T02:12:14.879Z,26.8
2017-02-02T02:13:14.938Z,26.8
2017-02-02T02:14:15.007Z,26.8
2017-02-02T02:15:16.154Z,26.9
2017-02-02T02:16:15.177Z,26.8
2017-02-02T02:17:16.537Z,26.8
2017-02-02T02:18:15.230Z,26.8
2017-02-02T02:19:16.440Z,26.9
2017-02-02T02:20:16.466Z,26.8
2017-02-02T02:21:16.449Z,26.8
2017-02-02T02:22:16.543Z,26.8
2017-02-02T02:23:15.923Z,26.8
2017-02-02T02:24:16.718Z,26.8
2017-02-02T02:25:16.658Z,26.9
2017-02-02T02:26:15.624Z,26.9
2017-02-02T02:27:16.783Z,26.9
2017-02-02T02:28:16.939Z,26.9
2017-02-02T02:29:17.226Z,26.9
2017-02-02T02:30:15.905Z,26.9
2017-02-02T02:31:16.021Z,26.9
2017-02-02T02:32:17.054Z,26.9
2017-02-02T02:33:17.209Z,26.9
2017-02-02T02:34:17.274Z,26.9
2017-02-02T02:35:17.504Z,26.9
2017-02-02T02:36:16.222Z,26.9
2017-02-02T02:37:16.290Z,26.9
2017-02-02T02:38:17.302Z,26.9
2017-02-02T02:39:16.331Z,26.9
2017-02-02T02:40:16.425Z,26.9
2017-02-02T02:41:16.684Z,26.9
2017-02-02T02:42:16.551Z,26.9
2017-02-02T02:43:16.546Z,26.9
2017-02-02T02:44:16.643Z,26.9
2017-02-02T02:45:16.661Z,26.9
2017-02-02T02:46:17.824Z,26.9
2017-02-02T02:47:17.061Z,26.9
2017-02-02T02:48:18.689Z,26.9
2017-02-02T02:49:18.680Z,26.9
2017-02-02T02:50:16.966Z,26.9
2017-02-02T02:51:17.106Z,26.9
2017-02-02T02:52:17.207Z,26.9
2017-02-02T02:53:19.053Z,26.9
2017-02-02T02:54:17.186Z,26.9
2017-02-02T02:55:17.359Z,26.9
2017-02-02T02:56:18.373Z,26.9
2017-02-02T02:57:17.291Z,26.9
2017-02-02T02:58:17.470Z,26.9
2017-02-02T02:59:17.743Z,26.9
2017-02-02T03:00:18.583Z,26.9
2017-02-02T03:01:19.188Z,26.9
2017-02-02T03:02:19.280Z,26.9
2017-02-02T03:03:18.668Z,26.9
2017-02-02T03:04:17.743Z,26.9
2017-02-02T03:05:18.096Z,26.9
2017-02-02T03:06:17.861Z,26.9
2017-02-02T03:07:17.771Z,26.9
2017-02-02T03:08:18.861Z,26.9
2017-02-02T03:09:19.002Z,26.9
2017-02-02T03:10:18.561Z,26.9
2017-02-02T03:11:18.346Z,26.9
2017-02-02T03:12:18.143Z,26.9
2017-02-02T03:13:19.298Z,26.9
2017-02-02T03:14:18.189Z,26.9
2017-02-02T03:15:19.357Z,26.9
2017-02-02T03:16:18.432Z,26.9
2017-02-02T03:17:18.645Z,26.9
2017-02-02T03:18:18.539Z,26.9
2017-02-02T03:19:18.501Z,26.9
2017-02-02T03:20:18.591Z,26.9
2017-02-02T03:21:18.661Z,26.9
2017-02-02T03:22:18.739Z,26.9
2017-02-02T03:23:19.103Z,26.9
2017-02-02T03:24:20.661Z,26.9
2017-02-02T03:25:18.853Z,26.9
2017-02-02T03:26:19.987Z,26.9
2017-02-02T03:27:18.995Z,26.9
2017-02-02T03:28:19.072Z,26.9
2017-02-02T03:29:19.496Z,26.9
2017-02-02T03:30:19.273Z,26.9
2017-02-02T03:31:20.257Z,26.9
2017-02-02T03:32:19.213Z,26.9
2017-02-02T03:33:20.360Z,26.9
2017-02-02T03:34:20.065Z,26.9
2017-02-02T03:35:20.833Z,26.9
2017-02-02T03:36:20.485Z,26.9
2017-02-02T03:37:19.458Z,26.9
2017-02-02T03:38:19.538Z,26.9
2017-02-02T03:39:19.568Z,26.9
2017-02-02T03:40:20.585Z,26.9
2017-02-02T03:41:19.804Z,26.9
2017-02-02T03:42:19.601Z,26.9
2017-02-02T03:43:20.668Z,26.9
2017-02-02T03:44:20.820Z,26.9
2017-02-02T03:45:21.513Z,26.9
2017-02-02T03:46:19.837Z,26.9
2017-02-02T03:47:21.883Z,26.9
2017-02-02T03:48:20.004Z,26.9
2017-02-02T03:49:20.097Z,26.9
2017-02-02T03:50:21.117Z,26.9
2017-02-02T03:51:20.138Z,26.9
2017-02-02T03:52:21.338Z,26.9
2017-02-02T03:53:20.549Z,26.9
2017-02-02T03:54:21.464Z,26.9
2017-02-02T03:55:20.457Z,26.9
2017-02-02T03:56:20.511Z,26.9
2017-02-02T03:57:21.544Z,26.9
2017-02-02T03:58:21.576Z,26.9
2017-02-02T03:59:20.971Z,26.9
2017-02-02T04:00:20.686Z,26.9
2017-02-02T04:01:21.626Z,26.9
2017-02-02T04:02:20.688Z,26.9
2017-02-02T04:03:21.887Z,26.9
2017-02-02T04:04:20.820Z,26.9
2017-02-02T04:05:22.282Z,26.9
2017-02-02T04:06:20.989Z,26.9
2017-02-02T04:07:20.963Z,26.9
2017-02-02T04:08:22.160Z,26.9
2017-02-02T04:09:22.315Z,26.9
2017-02-02T04:10:21.365Z,26.9
2017-02-02T04:11:22.741Z,26.9
2017-02-02T04:12:21.371Z,26.9
2017-02-02T04:13:22.544Z,26.9
2017-02-02T04:14:21.421Z,27
2017-02-02T04:15:22.592Z,26.9
2017-02-02T04:16:21.482Z,26.9
2017-02-02T04:17:21.933Z,26.9
2017-02-02T04:18:22.713Z,27
2017-02-02T04:19:22.864Z,27
2017-02-02T04:20:22.874Z,27
2017-02-02T04:21:22.820Z,27
2017-02-02T04:22:21.859Z,26.9
2017-02-02T04:23:23.149Z,27
2017-02-02T04:24:22.945Z,26.9
2017-02-02T04:25:23.041Z,26.9
2017-02-02T04:26:23.026Z,26.9
2017-02-02T04:27:23.017Z,26.9
2017-02-02T04:28:23.185Z,27
2017-02-02T04:29:22.383Z,27
2017-02-02T04:30:23.304Z,27
2017-02-02T04:31:22.276Z,27.1
2017-02-02T04:32:23.360Z,27.2
2017-02-02T04:33:22.385Z,27.2
2017-02-02T04:34:22.368Z,27.3
2017-02-02T04:35:22.626Z,27.4
2017-02-02T04:36:23.569Z,27.4
2017-02-02T04:37:22.550Z,27.5
2017-02-02T04:38:22.631Z,27.6
2017-02-02T04:39:23.742Z,27.6
2017-02-02T04:40:23.769Z,27.7
2017-02-02T04:41:24.091Z,27.7
2017-02-02T04:42:22.786Z,27.8
2017-02-02T04:43:22.753Z,27.8
2017-02-02T04:44:22.830Z,27.8
2017-02-02T04:45:26.277Z,27.9
2017-02-02T04:46:24.101Z,27.9
2017-02-02T04:47:24.357Z,27.9
2017-02-02T04:48:23.108Z,28
2017-02-02T04:49:24.094Z,28
2017-02-02T04:50:23.113Z,28.1
2017-02-02T04:51:24.198Z,28.1
2017-02-02T04:52:24.170Z,28.1
2017-02-02T04:53:24.574Z,28.1
2017-02-02T04:54:23.287Z,28.2
2017-02-02T04:55:24.406Z,28.2
2017-02-02T04:56:23.426Z,28.3
2017-02-02T04:57:24.519Z,28.3
2017-02-02T04:58:23.526Z,28.3
2017-02-02T04:59:24.931Z,28.3
2017-02-02T05:00:24.714Z,28.4
2017-02-02T05:01:23.816Z,28.4
2017-02-02T05:02:23.880Z,28.4
2017-02-02T05:03:25.010Z,28.4
2017-02-02T05:04:25.071Z,28.4
2017-02-02T05:05:24.226Z,28.4
2017-02-02T05:06:25.168Z,28.4
2017-02-02T05:07:24.187Z,28.4
2017-02-02T05:08:24.245Z,28.4
2017-02-02T05:09:25.331Z,28.4
2017-02-02T05:10:25.329Z,28.4
2017-02-02T05:11:24.632Z,28.5
2017-02-02T05:12:25.528Z,28.4
2017-02-02T05:13:25.521Z,28.4
2017-02-02T05:14:24.549Z,28.5
2017-02-02T05:15:25.718Z,28.4
2017-02-02T05:16:25.728Z,28.4
2017-02-02T05:17:24.697Z,28.4
2017-02-02T05:18:24.691Z,28.4
2017-02-02T05:19:26.471Z,28.4
2017-02-02T05:20:24.806Z,28.4
2017-02-02T05:21:25.961Z,28.4
2017-02-02T05:22:25.040Z,28.4
2017-02-02T05:23:26.123Z,28.4
2017-02-02T05:24:25.161Z,28.4
2017-02-02T05:25:25.239Z,28.4
2017-02-02T05:26:25.183Z,28.4
2017-02-02T05:27:25.205Z,28.4
2017-02-02T05:28:25.379Z,28.4
2017-02-02T05:29:25.418Z,28.4
2017-02-02T05:30:25.332Z,28.4
2017-02-02T05:31:26.527Z,28.4
2017-02-02T05:32:26.579Z,28.4
2017-02-02T05:33:26.639Z,28.4
2017-02-02T05:34:25.610Z,28.4
2017-02-02T05:35:26.605Z,28.4
2017-02-02T05:36:25.659Z,28.4
2017-02-02T05:37:25.676Z,28.4
2017-02-02T05:38:26.762Z,28.4
2017-02-02T05:39:26.699Z,28.4
2017-02-02T05:40:25.762Z,28.4
2017-02-02T05:41:26.821Z,28.4
2017-02-02T05:42:26.788Z,28.4
2017-02-02T05:43:26.915Z,28.4
2017-02-02T05:44:26.915Z,28.4
2017-02-02T05:45:25.894Z,28.4
2017-02-02T05:46:26.966Z,28.4
2017-02-02T05:47:27.077Z,28.4
2017-02-02T05:48:27.138Z,28.4
2017-02-02T05:49:26.850Z,28.3
2017-02-02T05:50:27.161Z,28.3
2017-02-02T05:51:27.248Z,28.3
2017-02-02T05:52:26.332Z,28.3
2017-02-02T05:53:27.864Z,28.3
2017-02-02T05:54:27.500Z,28.3
2017-02-02T05:55:26.474Z,28.3
2017-02-02T05:56:27.555Z,28.3
2017-02-02T05:57:26.596Z,28.3
2017-02-02T05:58:27.620Z,28.3
2017-02-02T05:59:26.569Z,28.3
2017-02-02T06:00:26.628Z,28.3
2017-02-02T06:01:27.710Z,28.3
2017-02-02T06:02:27.826Z,28.3
2017-02-02T06:03:27.827Z,28.3
2017-02-02T06:04:26.858Z,28.2
2017-02-02T06:05:27.886Z,28.2
2017-02-02T06:06:26.898Z,28.2
2017-02-02T06:07:26.882Z,28.2
2017-02-02T06:08:26.922Z,28.2
2017-02-02T06:09:28.062Z,28.2
2017-02-02T06:10:27.088Z,28.2
2017-02-02T06:11:28.258Z,28.2
2017-02-02T06:12:27.142Z,28.2
2017-02-02T06:13:28.248Z,28.2
2017-02-02T06:14:28.402Z,28.2
2017-02-02T06:15:27.239Z,28.2
2017-02-02T06:16:27.235Z,28.2
2017-02-02T06:17:27.400Z,28.1
2017-02-02T06:18:28.378Z,28.1
2017-02-02T06:19:28.546Z,28.1
2017-02-02T06:20:27.420Z,28.1
2017-02-02T06:21:27.477Z,28.1
2017-02-02T06:22:28.008Z,28.1
2017-02-02T06:23:28.809Z,28.1
2017-02-02T06:24:27.823Z,28.1
2017-02-02T06:25:27.813Z,28.1
2017-02-02T06:26:29.015Z,28.1
2017-02-02T06:27:28.049Z,28.1
2017-02-02T06:28:28.318Z,28.1
2017-02-02T06:29:29.090Z,28.1
2017-02-02T06:30:29.105Z,28.1
2017-02-02T06:31:29.858Z,28.1
2017-02-02T06:32:28.179Z,28.1
2017-02-02T06:33:29.342Z,28.1
2017-02-02T06:34:28.592Z,28
2017-02-02T06:35:28.300Z,28
2017-02-02T06:36:28.344Z,28
2017-02-02T06:37:29.381Z,28
2017-02-02T06:38:29.511Z,28
2017-02-02T06:39:29.548Z,28
2017-02-02T06:40:29.905Z,28
2017-02-02T06:41:29.659Z,28
2017-02-02T06:42:29.704Z,28
2017-02-02T06:43:29.672Z,28
2017-02-02T06:44:28.788Z,28
2017-02-02T06:45:28.731Z,28
2017-02-02T06:46:30.246Z,28
2017-02-02T06:47:28.791Z,28
2017-02-02T06:48:29.919Z,28
2017-02-02T06:49:29.933Z,28
2017-02-02T06:50:30.613Z,28
2017-02-02T06:51:29.109Z,28
2017-02-02T06:52:30.368Z,28
2017-02-02T06:53:29.081Z,28
2017-02-02T06:54:29.067Z,28
2017-02-02T06:55:29.162Z,28
2017-02-02T06:56:30.266Z,28
2017-02-02T06:57:30.322Z,28
2017-02-02T06:58:30.662Z,27.9
2017-02-02T06:59:29.334Z,27.9
2017-02-02T07:00:29.469Z,27.9
2017-02-02T07:01:30.560Z,27.9
2017-02-02T07:02:29.507Z,27.9
2017-02-02T07:03:30.593Z,27.9
2017-02-02T07:04:31.902Z,27.9
2017-02-02T07:05:30.634Z,27.9
2017-02-02T07:06:30.789Z,27.9
2017-02-02T07:07:30.794Z,27.9
2017-02-02T07:08:30.832Z,27.9
2017-02-02T07:09:29.791Z,27.9
2017-02-02T07:10:32.471Z,27.9
2017-02-02T07:11:35.344Z,27.9
2017-02-02T07:12:32.256Z,27.9
2017-02-02T07:13:29.826Z,27.9
2017-02-02T07:14:30.997Z,27.8
2017-02-02T07:15:30.934Z,28
2017-02-02T07:16:30.278Z,28.3
2017-02-02T07:17:30.638Z,29
2017-02-02T07:18:30.095Z,29.2
2017-02-02T07:19:31.180Z,29.7
2017-02-02T07:20:31.180Z,30.5
2017-02-02T07:21:31.195Z,31.6
2017-02-02T07:22:31.041Z,31.6
2017-02-02T07:23:31.288Z,32.3
2017-02-02T07:24:31.329Z,32.4
2017-02-02T07:25:31.395Z,32.7
2017-02-02T07:26:31.373Z,33
2017-02-02T07:27:30.397Z,33.4
2017-02-02T07:28:30.831Z,33.4
2017-02-02T07:29:31.654Z,34.3
2017-02-02T07:30:31.733Z,35.4
2017-02-02T07:31:30.720Z,35.1
2017-02-02T07:32:30.716Z,35.7
2017-02-02T07:33:31.894Z,35.7
2017-02-02T07:34:32.157Z,36.8
2017-02-02T07:35:35.090Z,36.8
2017-02-02T07:36:33.758Z,36.8
2017-02-02T07:37:33.413Z,37.1
2017-02-02T07:38:31.115Z,37.6
2017-02-02T07:39:31.153Z,38
2017-02-02T07:40:34.986Z,37.9
2017-02-02T07:41:35.665Z,38.5
2017-02-02T07:42:31.293Z,38.7
2017-02-02T07:43:31.429Z,38.5
2017-02-02T07:44:31.466Z,38.4
2017-02-02T07:45:31.600Z,38.3
2017-02-02T07:46:35.614Z,38
2017-02-02T07:47:32.706Z,37.8
2017-02-02T07:48:32.711Z,37.5
2017-02-02T07:49:33.107Z,37.3
2017-02-02T07:50:33.959Z,37
2017-02-02T07:51:32.918Z,36.7
2017-02-02T07:52:33.237Z,36.4
2017-02-02T07:53:31.964Z,36.1
2017-02-02T07:54:33.055Z,35.9
2017-02-02T07:55:32.661Z,35.7
2017-02-02T07:56:32.088Z,35.4
2017-02-02T07:57:33.189Z,35.2
2017-02-02T07:58:33.594Z,35
2017-02-02T07:59:34.141Z,34.8
2017-02-02T08:00:36.877Z,34.7
2017-02-02T08:01:33.535Z,34.5
2017-02-02T08:02:33.511Z,34.3
2017-02-02T08:03:33.604Z,34.2
2017-02-02T08:04:33.479Z,34
2017-02-02T08:05:34.264Z,33.9
2017-02-02T08:06:32.593Z,33.7
2017-02-02T08:07:33.547Z,33.6
2017-02-02T08:08:34.369Z,33.5
2017-02-02T08:09:32.731Z,33.4
2017-02-02T08:10:33.055Z,33.3
2017-02-02T08:11:35.177Z,33.2
2017-02-02T08:12:34.502Z,33
2017-02-02T08:13:34.139Z,32.9
2017-02-02T08:14:34.998Z,32.8
2017-02-02T08:15:35.629Z,32.7
2017-02-02T08:16:36.113Z,32.6
2017-02-02T08:17:34.845Z,32.5
2017-02-02T08:18:34.817Z,32.4
2017-02-02T08:19:34.269Z,32.3
2017-02-02T08:20:34.320Z,32.2
2017-02-02T08:21:33.350Z,32
2017-02-02T08:22:34.747Z,31.9
2017-02-02T08:23:35.700Z,31.8
2017-02-02T08:24:35.306Z,31.7
2017-02-02T08:25:36.348Z,31.6
2017-02-02T08:26:36.901Z,31.5
2017-02-02T08:27:34.684Z,31.4
2017-02-02T08:28:36.694Z,31.3
2017-02-02T08:29:34.411Z,31.3
2017-02-02T08:30:36.024Z,31.2
2017-02-02T08:31:37.846Z,31.2
2017-02-02T08:32:36.078Z,31.1
2017-02-02T08:33:34.420Z,31
2017-02-02T08:34:34.192Z,30.9
2017-02-02T08:35:34.980Z,30.9
2017-02-02T08:36:37.105Z,30.8
2017-02-02T08:37:34.591Z,30.8
2017-02-02T08:38:37.406Z,30.8
2017-02-02T08:39:40.385Z,30.8
2017-02-02T08:40:38.576Z,30.8
2017-02-02T08:41:35.213Z,30.8
2017-02-02T08:42:35.879Z,30.8
2017-02-02T08:43:34.733Z,30.9
2017-02-02T08:44:35.231Z,30.9
2017-02-02T08:45:34.239Z,30.9
2017-02-02T08:46:36.283Z,30.8
2017-02-02T08:47:34.465Z,30.9
2017-02-02T08:48:35.564Z,30.8
2017-02-02T08:49:34.575Z,30.9
2017-02-02T08:50:34.486Z,30.9
2017-02-02T08:51:36.243Z,30.9
2017-02-02T08:52:34.855Z,30.9
2017-02-02T08:53:34.575Z,30.9
2017-02-02T08:54:34.617Z,30.9
2017-02-02T08:55:34.602Z,30.9
2017-02-02T08:56:35.681Z,30.9
2017-02-02T08:57:35.772Z,30.8
2017-02-02T08:58:36.056Z,30.9
2017-02-02T08:59:34.774Z,30.8
2017-02-02T09:00:35.934Z,30.8
2017-02-02T09:01:35.969Z,30.8
2017-02-02T09:02:36.046Z,30.8
2017-02-02T09:03:36.083Z,30.9
2017-02-02T09:04:35.874Z,31
2017-02-02T09:05:35.082Z,31
2017-02-02T09:06:36.212Z,31.1
2017-02-02T09:07:36.904Z,31.1
2017-02-02T09:08:35.243Z,31.2
2017-02-02T09:09:36.408Z,31.2
2017-02-02T09:10:35.810Z,31.3
2017-02-02T09:11:36.775Z,31.3
2017-02-02T09:12:36.600Z,31.4
2017-02-02T09:13:35.544Z,31.4
2017-02-02T09:14:35.662Z,31.4
2017-02-02T09:15:39.350Z,31.4
2017-02-02T09:16:37.296Z,31.4
2017-02-02T09:17:37.566Z,31.5
2017-02-02T09:18:37.501Z,31.5
2017-02-02T09:19:36.885Z,31.5
2017-02-02T09:20:36.876Z,31.6
2017-02-02T09:21:36.875Z,31.7
2017-02-02T09:22:37.254Z,31.7
2017-02-02T09:23:35.994Z,31.7
2017-02-02T09:24:37.125Z,31.7
2017-02-02T09:25:36.072Z,31.8
2017-02-02T09:26:37.308Z,31.8
2017-02-02T09:27:37.374Z,31.9
2017-02-02T09:28:36.637Z,31.8
2017-02-02T09:29:36.410Z,31.8
2017-02-02T09:30:37.479Z,31.8
2017-02-02T09:31:38.038Z,31.8
2017-02-02T09:32:37.606Z,31.7
2017-02-02T09:33:36.499Z,31.8
2017-02-02T09:34:38.758Z,31.8
2017-02-02T09:35:37.747Z,31.8
2017-02-02T09:36:36.676Z,31.8
2017-02-02T09:38:36.879Z,31.8
2017-02-02T09:39:38.065Z,31.8
2017-02-02T09:40:37.287Z,31.9
2017-02-02T09:41:38.219Z,31.9
2017-02-02T09:42:38.310Z,32
2017-02-02T09:43:37.708Z,32
2017-02-02T09:44:38.371Z,32.1
2017-02-02T09:45:37.453Z,32.1
2017-02-02T09:46:37.718Z,32.2
2017-02-02T09:47:38.556Z,32.2
2017-02-02T09:48:37.588Z,32.3
2017-02-02T09:49:38.650Z,32.4
2017-02-02T09:50:39.382Z,32.4
2017-02-02T09:51:37.684Z,32.4
2017-02-02T09:52:38.060Z,32.5
2017-02-02T09:53:37.734Z,32.5
2017-02-02T09:54:40.813Z,32.5
2017-02-02T09:55:39.184Z,32.5
2017-02-02T09:56:39.108Z,32.5
2017-02-02T09:57:37.994Z,32.5
2017-02-02T09:58:39.340Z,32.6
2017-02-02T09:59:39.128Z,32.6
2017-02-02T10:00:39.070Z,32.6
2017-02-02T10:01:39.098Z,32.6
2017-02-02T10:02:38.075Z,32.6
2017-02-02T10:03:38.864Z,32.5
2017-02-02T10:04:38.511Z,32.6
2017-02-02T10:05:38.281Z,32.5
2017-02-02T10:06:38.233Z,32.5
2017-02-02T10:07:39.747Z,32.5
2017-02-02T10:08:38.518Z,32.5
2017-02-02T10:09:38.526Z,32.4
2017-02-02T10:10:38.810Z,32.4
2017-02-02T10:11:38.573Z,32.4
2017-02-02T10:12:38.647Z,32.4
2017-02-02T10:13:39.745Z,32.4
2017-02-02T10:14:39.533Z,32.3
2017-02-02T10:15:38.840Z,32.3
2017-02-02T10:16:39.113Z,32.2
2017-02-02T10:17:38.876Z,32.2
2017-02-02T10:18:39.978Z,32.1
2017-02-02T10:19:38.991Z,32
2017-02-02T10:20:39.095Z,32
2017-02-02T10:21:39.176Z,31.9
2017-02-02T10:22:39.475Z,31.8
2017-02-02T10:23:40.394Z,31.8
2017-02-02T10:24:39.434Z,31.8
2017-02-02T10:25:40.026Z,31.8
2017-02-02T10:26:40.568Z,31.7
2017-02-02T10:27:39.482Z,31.7
2017-02-02T10:28:39.883Z,31.7
2017-02-02T10:29:39.628Z,31.6
2017-02-02T10:30:40.809Z,31.6
2017-02-02T10:31:40.892Z,31.6
2017-02-02T10:32:40.915Z,31.5
2017-02-02T10:33:40.964Z,31.5
2017-02-02T10:34:40.313Z,31.4
2017-02-02T10:35:41.163Z,31.4
2017-02-02T10:36:40.064Z,31.4
2017-02-02T10:37:40.209Z,31.4
2017-02-02T10:38:41.902Z,31.4
2017-02-02T10:39:40.289Z,31.4
2017-02-02T10:40:40.538Z,31.4
2017-02-02T10:41:40.326Z,31.4
2017-02-02T10:42:40.467Z,31.4
2017-02-02T10:43:41.442Z,31.3
2017-02-02T10:44:40.431Z,31.3
2017-02-02T10:45:40.600Z,31.3
2017-02-02T10:46:40.960Z,31.2
2017-02-02T10:47:41.667Z,31.1
2017-02-02T10:48:41.795Z,31.1
2017-02-02T10:49:41.872Z,31
2017-02-02T10:50:42.245Z,30.9
2017-02-02T10:51:42.300Z,30.9
2017-02-02T10:52:41.261Z,30.8
2017-02-02T10:53:42.746Z,30.7
2017-02-02T10:54:41.091Z,30.7
2017-02-02T10:55:41.088Z,30.6
2017-02-02T10:56:41.143Z,30.5
2017-02-02T10:57:42.265Z,30.4
2017-02-02T10:58:41.557Z,30.4
2017-02-02T10:59:42.404Z,30.3
2017-02-02T11:00:42.372Z,30.3
2017-02-02T11:01:42.090Z,30.3
2017-02-02T11:02:41.433Z,30.2
2017-02-02T11:03:42.552Z,30.1
2017-02-02T11:04:42.900Z,30.1
2017-02-02T11:05:42.635Z,30.1
2017-02-02T11:06:42.795Z,30
2017-02-02T11:07:41.775Z,30
2017-02-02T11:08:43.008Z,30
2017-02-02T11:09:42.984Z,29.9
2017-02-02T11:10:42.177Z,29.9
2017-02-02T11:11:42.001Z,29.9
2017-02-02T11:12:43.144Z,29.9
2017-02-02T11:13:43.221Z,29.8
2017-02-02T11:14:43.223Z,29.8
2017-02-02T11:15:43.321Z,29.8
2017-02-02T11:16:43.136Z,29.8
2017-02-02T11:17:45.301Z,29.7
2017-02-02T11:18:44.067Z,29.6
2017-02-02T11:19:43.653Z,29.6
2017-02-02T11:20:44.293Z,29.6
2017-02-02T11:21:42.695Z,29.5
2017-02-02T11:22:44.920Z,29.4
2017-02-02T11:23:43.335Z,29.4
2017-02-02T11:24:43.842Z,29.3
2017-02-02T11:25:44.487Z,29.3
2017-02-02T11:26:42.900Z,29.2
2017-02-02T11:27:45.135Z,29.2
2017-02-02T11:28:43.330Z,29.1
2017-02-02T11:29:43.175Z,29
2017-02-02T11:30:43.127Z,28.9
2017-02-02T11:31:43.734Z,28.8
2017-02-02T11:32:44.186Z,28.7
2017-02-02T11:33:44.835Z,28.5
2017-02-02T11:34:43.598Z,28.4
2017-02-02T11:35:46.279Z,28.3
2017-02-02T11:36:43.988Z,28.1
2017-02-02T11:37:44.123Z,27.9
2017-02-02T11:38:48.949Z,27.7
2017-02-02T11:39:44.599Z,27.6
2017-02-02T11:40:44.421Z,27.3
2017-02-02T11:41:45.294Z,27.1
2017-02-02T11:42:44.704Z,26.9
2017-02-02T11:43:44.863Z,26.7
2017-02-02T11:44:44.935Z,26.5
2017-02-02T11:45:45.520Z,26.3
2017-02-02T11:46:45.297Z,26.1
2017-02-02T11:47:44.445Z,25.9
2017-02-02T11:48:43.928Z,25.7
2017-02-02T11:49:44.662Z,25.5
2017-02-02T11:50:44.615Z,25.4
2017-02-02T11:51:44.076Z,25.3
2017-02-02T11:52:44.785Z,25.1
2017-02-02T11:53:45.945Z,25
2017-02-02T11:54:44.935Z,24.9
2017-02-02T11:55:45.462Z,24.8
2017-02-02T11:56:46.201Z,24.7
2017-02-02T11:57:45.213Z,24.7
2017-02-02T11:58:45.538Z,24.6
2017-02-02T11:59:45.777Z,24.5
2017-02-02T12:00:46.353Z,24.5
2017-02-02T12:01:44.904Z,24.4
2017-02-02T12:02:45.590Z,24.3
2017-02-02T12:03:44.956Z,24.3
2017-02-02T12:04:45.387Z,24.2
2017-02-02T12:05:45.085Z,24.1
2017-02-02T12:06:45.144Z,24
2017-02-02T12:07:45.129Z,23.9
2017-02-02T12:08:45.272Z,23.8
2017-02-02T12:09:45.299Z,23.7
2017-02-02T12:10:46.689Z,23.6
2017-02-02T12:11:45.403Z,23.5
2017-02-02T12:12:45.492Z,23.4
2017-02-02T12:13:46.591Z,23.5
2017-02-02T12:14:46.056Z,23.5
2017-02-02T12:15:46.693Z,23.5
2017-02-02T12:16:46.744Z,23.6
2017-02-02T12:17:46.802Z,23.8
2017-02-02T12:18:45.865Z,23.9
2017-02-02T12:19:45.865Z,24
2017-02-02T12:20:46.997Z,24.2
2017-02-02T12:21:47.116Z,24.3
2017-02-02T12:22:46.070Z,24.2
2017-02-02T12:23:46.962Z,24.3
2017-02-02T12:24:46.204Z,24.3
2017-02-02T12:25:48.225Z,24.5
2017-02-02T12:26:47.461Z,24.5
2017-02-02T12:27:46.437Z,24.5
2017-02-02T12:28:47.952Z,24.5
2017-02-02T12:29:47.211Z,24.4
2017-02-02T12:30:48.294Z,24.3
2017-02-02T12:31:48.960Z,24.2
2017-02-02T12:32:47.268Z,24.1
2017-02-02T12:33:48.805Z,24
2017-02-02T12:34:48.737Z,23.9
2017-02-02T12:35:46.691Z,23.8
2017-02-02T12:36:48.780Z,23.8
2017-02-02T12:37:48.152Z,23.8
2017-02-02T12:38:48.326Z,23.7
2017-02-02T12:39:48.132Z,23.8
2017-02-02T12:40:46.966Z,24
2017-02-02T12:41:47.126Z,24.2
2017-02-02T12:42:48.290Z,24.4
2017-02-02T12:43:49.018Z,24.6
2017-02-02T12:44:47.163Z,24.8
2017-02-02T12:45:48.341Z,24.9
2017-02-02T12:46:50.962Z,25.1
2017-02-02T12:47:48.534Z,25.2
2017-02-02T12:48:50.030Z,25.3
2017-02-02T12:49:48.520Z,25.1
2017-02-02T12:50:47.475Z,25.2
2017-02-02T12:51:47.641Z,25.2
2017-02-02T12:52:48.801Z,25.3
2017-02-02T12:53:50.182Z,25.3
2017-02-02T12:54:48.519Z,25.3
2017-02-02T12:55:47.844Z,25.2
2017-02-02T12:56:51.115Z,25
2017-02-02T12:57:49.118Z,24.8
2017-02-02T12:58:48.048Z,24.7
2017-02-02T12:59:48.197Z,24.5
2017-02-02T13:00:49.341Z,24.4
2017-02-02T13:01:49.764Z,24.2
2017-02-02T13:02:49.008Z,24.1
2017-02-02T13:03:49.885Z,23.9
2017-02-02T13:04:50.120Z,23.7
2017-02-02T13:05:48.442Z,23.5
2017-02-02T13:06:51.504Z,23.3
2017-02-02T13:07:48.454Z,23.1
2017-02-02T13:08:49.593Z,22.9
2017-02-02T13:09:48.548Z,22.7
2017-02-02T13:10:51.884Z,22.6
2017-02-02T13:11:50.719Z,22.4
2017-02-02T13:12:49.845Z,22.3
2017-02-02T13:13:50.413Z,22.1
2017-02-02T13:14:49.355Z,22.1
2017-02-02T13:15:49.561Z,22
2017-02-02T13:16:49.765Z,21.9
2017-02-02T13:17:49.980Z,21.8
2017-02-02T13:18:48.864Z,21.7
2017-02-02T13:19:48.996Z,21.6
2017-02-02T13:20:50.529Z,21.5
2017-02-02T13:21:51.158Z,21.5
2017-02-02T13:22:49.341Z,21.6
2017-02-02T13:23:50.915Z,21.7